Time;durP1;ratioP1;P1;durP2;ratioP2;P2;SDS_P1;SDS_P2;PMS_P1;PMS_P2;Temp;Humidity;BMP_temperature;BMP_pressure;BME280_temperature;BME280_humidity;BME280_pressure;Samples;Min_cycle;Max_cycle;Signal;HPM_P1;HPM_P2
2024/01/12 00:04:55;;;;;;;5.85;4.95;;;;;;;19.12;43.85;97842.75;20901677;28;20056;-57
2024/01/12 00:15:15;;;;;;;5.70;4.55;;;;;;;19.02;43.96;97835.59;20902910;28;20421;-57
2024/01/12 00:25:35;;;;;;;5.75;4.43;;;;;;;18.96;43.83;97853.78;20902703;28;20053;-57
2024/01/12 00:35:54;;;;;;;4.88;4.20;;;;;;;18.92;44.02;97860.06;20900831;28;20103;-57
2024/01/12 00:46:13;;;;;;;5.25;4.53;;;;;;;18.86;43.93;97869.34;20938028;28;20052;-57
2024/01/12 00:56:33;;;;;;;4.78;4.13;;;;;;;18.81;43.87;97864.03;20917158;28;20063;-57
2024/01/12 01:06:53;;;;;;;5.55;4.60;;;;;;;18.77;43.90;97879.97;20942751;28;20045;-57
2024/01/12 01:17:13;;;;;;;4.97;4.47;;;;;;;18.69;43.90;97861.72;20942364;28;20649;-57
2024/01/12 01:27:32;;;;;;;4.97;4.05;;;;;;;18.65;43.96;97877.72;20916422;28;20045;-57
2024/01/12 01:37:52;;;;;;;4.70;4.30;;;;;;;18.63;43.88;97873.69;20930473;28;20041;-57
2024/01/12 01:48:11;;;;;;;5.10;4.47;;;;;;;18.58;43.95;97877.25;20912620;28;20054;-57
2024/01/12 01:58:34;;;;;;;4.40;4.00;;;;;;;18.52;44.10;97862.22;20911276;28;20494;-57
2024/01/12 02:08:54;;;;;;;4.93;4.43;;;;;;;18.45;43.95;97851.81;20912431;28;20072;-54
2024/01/12 02:19:14;;;;;;;4.25;3.85;;;;;;;18.44;43.73;97858.28;20910557;28;20041;-55
2024/01/12 02:29:34;;;;;;;4.55;4.03;;;;;;;18.37;43.98;97855.97;20910095;28;20072;-55
2024/01/12 02:39:54;;;;;;;4.50;4.05;;;;;;;18.37;43.73;97850.56;20908889;28;20041;-55
2024/01/12 02:50:13;;;;;;;5.45;3.92;;;;;;;18.32;44.02;97850.63;20907376;28;20041;-55
2024/01/12 03:00:33;;;;;;;4.45;4.00;;;;;;;18.29;43.91;97867.41;20906511;28;20064;-55
2024/01/12 03:10:52;;;;;;;4.63;4.13;;;;;;;18.24;43.98;97875.56;20904699;28;20052;-55
2024/01/12 03:21:12;;;;;;;4.50;4.03;;;;;;;18.21;44.13;97878.84;20905007;28;20045;-57
2024/01/12 03:31:31;;;;;;;5.03;4.00;;;;;;;18.20;44.07;97876.44;20915838;28;20055;-57
2024/01/12 03:41:50;;;;;;;5.13;3.78;;;;;;;18.13;44.06;97877.59;20874553;28;20045;-57
2024/01/12 03:52:11;;;;;;;4.15;3.75;;;;;;;18.12;44.06;97859.78;20929400;28;20041;-57
2024/01/12 04:02:30;;;;;;;5.25;4.00;;;;;;;18.08;44.10;97874.16;20897049;28;20076;-57
2024/01/12 04:12:50;;;;;;;4.30;3.90;;;;;;;18.04;43.96;97865.81;20917308;28;20436;-57
2024/01/12 04:23:09;;;;;;;4.03;3.63;;;;;;;18.02;44.12;97869.91;20924949;28;20053;-57
2024/01/12 04:33:30;;;;;;;4.13;3.72;;;;;;;17.98;44.02;97858.88;20901198;28;20053;-57
2024/01/12 04:43:49;;;;;;;4.00;3.60;;;;;;;17.96;44.03;97871.84;20899462;28;20049;-57
2024/01/12 04:54:09;;;;;;;3.72;3.40;;;;;;;17.92;44.05;97866.22;20899932;28;20461;-57
2024/01/12 05:04:28;;;;;;;4.93;3.53;;;;;;;17.89;44.06;97856.00;20898458;28;20061;-56
2024/01/12 05:14:48;;;;;;;4.15;3.58;;;;;;;17.86;43.94;97858.50;20883963;28;20490;-57
2024/01/12 05:25:07;;;;;;;4.25;3.35;;;;;;;17.89;44.07;97874.88;20896200;28;20053;-57
2024/01/12 05:35:27;;;;;;;4.43;3.78;;;;;;;17.89;44.08;97866.00;20911550;28;20456;-55
2024/01/12 05:45:46;;;;;;;3.80;2.90;;;;;;;17.89;44.08;97885.66;20940070;28;20417;-57
2024/01/12 05:56:06;;;;;;;10.27;4.68;;;;;;;17.96;45.02;97878.03;20910536;28;20353;-57
2024/01/12 06:06:26;;;;;;;11.98;5.60;;;;;;;17.98;44.92;97878.56;20836636;28;20049;-58
2024/01/12 06:16:45;;;;;;;11.35;5.40;;;;;;;18.04;44.92;97863.13;20828721;28;20054;-58
2024/01/12 06:27:04;;;;;;;11.38;5.20;;;;;;;18.15;44.84;97866.50;20828978;28;20056;-57
2024/01/12 06:37:24;;;;;;;9.85;5.07;;;;;;;18.19;44.29;97870.25;20854530;28;20115;-57
2024/01/12 06:47:43;;;;;;;10.18;5.00;;;;;;;18.32;44.10;97883.00;20826717;28;20107;-57
2024/01/12 06:58:03;;;;;;;10.48;5.57;;;;;;;18.47;44.05;97886.59;20849870;28;20110;-57
2024/01/12 07:08:22;;;;;;;9.70;5.20;;;;;;;18.55;43.74;97891.34;20908301;28;20049;-57
2024/01/12 07:18:45;;;;;;;10.82;5.00;;;;;;;18.65;43.35;97907.41;20933938;28;20041;-57
2024/01/12 07:29:05;;;;;;;9.00;4.88;;;;;;;18.71;43.55;97914.31;20905515;28;20486;-57
2024/01/12 07:39:24;;;;;;;6.95;4.80;;;;;;;18.79;43.29;97920.97;20932286;28;20040;-55
2024/01/12 07:49:44;;;;;;;8.57;4.50;;;;;;;18.90;43.36;97927.88;20904917;28;20048;-57
2024/01/12 08:00:04;;;;;;;7.80;4.30;;;;;;;18.98;43.08;97933.72;20903369;28;20045;-58
2024/01/12 08:10:31;;;;;;;8.88;4.35;;;;;;;19.05;42.20;97934.94;20925417;28;20049;-53
2024/01/12 08:20:50;;;;;;;8.32;5.00;;;;;;;19.12;40.67;97932.66;20934498;28;20056;-55
2024/01/12 08:31:09;;;;;;;7.93;4.00;;;;;;;19.33;40.64;97940.47;20927282;28;20439;-55
2024/01/12 08:41:29;;;;;;;6.15;4.07;;;;;;;19.42;40.86;97935.19;20825930;28;20057;-55
2024/01/12 08:51:48;;;;;;;6.10;4.15;;;;;;;19.53;40.75;97926.59;20892484;28;20052;-55
2024/01/12 09:02:08;;;;;;;6.75;4.30;;;;;;;19.51;40.72;97926.09;20878144;28;20054;-55
2024/01/12 09:12:27;;;;;;;6.03;4.00;;;;;;;19.56;40.82;97919.78;20853215;28;20041;-53
2024/01/12 09:22:48;;;;;;;6.00;3.55;;;;;;;19.61;40.80;97935.13;20824385;28;20060;-55
2024/01/12 09:33:07;;;;;;;7.13;3.67;;;;;;;19.75;40.75;97936.78;20831314;28;20049;-55
2024/01/12 09:43:29;;;;;;;4.35;3.30;;;;;;;19.79;40.60;97920.78;20860644;28;20469;-56
2024/01/12 09:53:48;;;;;;;4.05;3.08;;;;;;;19.88;40.46;97929.81;20829493;28;20453;-55
2024/01/12 10:04:08;;;;;;;3.95;3.17;;;;;;;19.97;40.37;97927.19;20949453;28;20052;-55
2024/01/12 10:14:28;;;;;;;3.97;3.13;;;;;;;20.00;40.17;97921.22;20949583;28;20055;-55
2024/01/12 10:25:01;;;;;;;6.20;3.03;;;;;;;20.16;39.68;97900.06;19994202;28;10000150;-58
2024/01/12 10:35:21;;;;;;;4.40;2.90;;;;;;;20.25;39.72;97895.56;20850768;28;20045;-58
2024/01/12 10:45:44;;;;;;;3.58;2.85;;;;;;;20.28;39.53;97891.44;20836916;28;20478;-58
2024/01/12 10:56:04;;;;;;;4.07;2.90;;;;;;;20.33;39.15;97889.44;20847843;28;20057;-58
2024/01/12 11:06:24;;;;;;;3.35;2.58;;;;;;;20.34;39.24;97872.06;20873602;28;20091;-58
2024/01/12 11:16:44;;;;;;;4.35;2.65;;;;;;;20.38;39.27;97863.38;20904587;28;20508;-59
2024/01/12 11:27:04;;;;;;;4.68;2.60;;;;;;;20.43;39.34;97852.44;20903359;28;20056;-58
2024/01/12 11:37:26;;;;;;;3.40;2.45;;;;;;;20.50;39.34;97825.72;20886600;28;20053;-58
2024/01/12 11:47:46;;;;;;;3.28;2.67;;;;;;;20.54;39.07;97816.72;20901400;28;20094;-58
2024/01/12 11:58:06;;;;;;;3.33;2.25;;;;;;;20.49;38.55;97799.78;20850645;28;20045;-58
2024/01/12 12:08:27;;;;;;;3.47;2.50;;;;;;;20.62;38.91;97798.97;20876877;28;20545;-58
2024/01/12 12:18:47;;;;;;;5.53;2.85;;;;;;;20.59;38.86;97767.09;20857332;28;20490;-58
2024/01/12 12:29:06;;;;;;;6.53;3.95;;;;;;;20.66;39.88;97764.75;20853491;28;20050;-58
2024/01/12 12:39:26;;;;;;;6.55;3.10;;;;;;;20.67;39.69;97763.63;20895282;28;20049;-58
2024/01/12 12:49:46;;;;;;;4.25;2.50;;;;;;;20.65;39.78;97744.19;20894219;28;20050;-55
2024/01/12 13:00:09;;;;;;;6.80;3.60;;;;;;;20.62;39.00;97720.47;20794529;28;20081;-55
2024/01/12 13:10:29;;;;;;;4.85;2.55;;;;;;;20.54;39.53;97719.28;20825248;28;20076;-54
2024/01/12 13:20:49;;;;;;;3.45;2.70;;;;;;;20.47;39.79;97712.69;20826927;28;20041;-55
2024/01/12 13:31:08;;;;;;;2.55;2.30;;;;;;;20.42;39.91;97718.22;20849173;28;20060;-55
2024/01/12 13:41:43;;;;;;;5.38;2.40;;;;;;;20.34;40.11;97717.03;20444958;28;10001131;-54
2024/01/12 13:52:02;;;;;;;4.13;2.35;;;;;;;20.28;40.27;97721.75;19114941;28;10000866;-55
2024/01/12 14:02:22;;;;;;;4.22;2.53;;;;;;;20.26;40.35;97718.56;20912572;28;20055;-58
2024/01/12 14:12:42;;;;;;;2.63;2.25;;;;;;;20.21;40.64;97701.66;20960841;28;20045;-58
2024/01/12 14:23:02;;;;;;;3.22;2.10;;;;;;;20.15;40.58;97698.28;20881856;28;20053;-57
2024/01/12 14:33:21;;;;;;;3.53;2.25;;;;;;;20.06;40.77;97700.91;19956153;28;10000986;-56
2024/01/12 14:43:41;;;;;;;3.20;2.13;;;;;;;20.01;40.84;97689.41;20846967;28;20049;-58
2024/01/12 14:54:00;;;;;;;3.90;2.03;;;;;;;19.96;41.07;97695.72;20848738;28;20498;-57
2024/01/12 15:04:20;;;;;;;4.40;1.98;;;;;;;19.91;41.04;97693.91;20824291;28;20159;-59
2024/01/12 15:14:40;;;;;;;2.42;1.98;;;;;;;19.85;41.12;97676.22;19993534;28;10000846;-54
2024/01/12 15:25:00;;;;;;;3.88;2.35;;;;;;;19.84;41.54;97680.03;20907446;28;20053;-55
2024/01/12 15:35:19;;;;;;;2.72;1.92;;;;;;;19.76;41.74;97686.16;20902826;28;20064;-55
2024/01/12 15:45:39;;;;;;;1.92;1.70;;;;;;;19.75;42.38;97703.47;20922979;28;20095;-55
2024/01/12 15:55:58;;;;;;;2.85;1.95;;;;;;;19.70;42.35;97703.56;20856192;28;20044;-56
2024/01/12 16:06:18;;;;;;;2.83;1.65;;;;;;;19.65;42.31;97700.97;20935259;28;20086;-55
2024/01/12 16:16:41;;;;;;;2.33;2.10;;;;;;;19.63;42.22;97705.88;20893898;28;20052;-55
2024/01/12 16:27:00;;;;;;;2.42;1.83;;;;;;;19.62;42.10;97699.69;20892297;28;21982;-56
2024/01/12 16:37:20;;;;;;;2.33;1.77;;;;;;;19.52;43.18;97691.75;20893308;28;20053;-54
2024/01/12 16:47:39;;;;;;;1.85;1.75;;;;;;;19.52;43.45;97689.88;20918309;28;20041;-56
2024/01/12 16:57:58;;;;;;;2.47;1.70;;;;;;;19.50;43.90;97685.84;20895334;28;20057;-56
2024/01/12 17:08:18;;;;;;;2.88;1.85;;;;;;;19.51;44.00;97690.19;20892111;28;20433;-56
2024/01/12 17:18:49;;;;;;;3.30;1.72;;;;;;;19.46;44.03;97693.75;20433305;28;10001099;-54
2024/01/12 17:29:09;;;;;;;2.17;1.60;;;;;;;19.44;43.96;97695.97;20934403;28;20114;-55
2024/01/12 17:39:29;;;;;;;2.85;1.88;;;;;;;19.41;43.78;97687.69;20925046;28;20158;-56
2024/01/12 17:49:50;;;;;;;2.15;1.60;;;;;;;19.43;43.94;97670.06;20928175;28;20402;-56
2024/01/12 18:00:10;;;;;;;2.63;1.70;;;;;;;19.40;43.61;97665.25;20903771;28;20053;-55
2024/01/12 18:10:30;;;;;;;1.70;1.48;;;;;;;19.35;43.61;97654.56;20934054;28;20064;-56
2024/01/12 18:20:52;;;;;;;2.55;1.83;;;;;;;19.35;43.76;97632.94;21092269;22;20049;-96
2024/01/12 18:31:15;;;;;;;1.70;1.60;;;;;;;19.27;44.07;97625.56;20803054;23;20079;-56
2024/01/12 18:41:38;;;;;;;3.40;1.80;;;;;;;19.30;43.78;97633.03;20802755;28;20050;-57
2024/01/12 18:51:59;;;;;;;2.75;1.70;;;;;;;19.24;44.11;97631.56;20824325;22;20061;-75
2024/01/12 19:02:18;;;;;;;2.13;1.60;;;;;;;19.25;44.36;97625.84;20765193;28;20409;-82
2024/01/12 19:12:39;;;;;;;2.15;1.40;;;;;;;19.30;44.11;97638.44;20730031;28;20050;-81
2024/01/12 19:22:58;;;;;;;3.75;1.88;;;;;;;19.40;43.59;97669.88;20739716;28;20050;-79
2024/01/12 19:33:18;;;;;;;2.65;2.00;;;;;;;19.46;43.83;97695.69;20719753;28;20046;-75
2024/01/12 19:43:38;;;;;;;1.70;1.52;;;;;;;19.46;43.95;97679.47;20756243;28;20054;-74
2024/01/12 19:53:57;;;;;;;3.60;2.20;;;;;;;19.44;43.83;97660.84;20717780;28;20104;-75
2024/01/12 20:04:16;;;;;;;2.72;2.00;;;;;;;19.54;43.35;97627.41;20748195;28;20046;-74
2024/01/12 20:14:36;;;;;;;5.32;2.50;;;;;;;19.54;44.23;97639.03;20750447;28;20568;-78
2024/01/12 20:24:56;;;;;;;4.65;2.55;;;;;;;19.59;44.44;97640.03;20764143;28;20081;-74
2024/01/12 20:35:15;;;;;;;4.15;2.00;;;;;;;19.64;44.22;97634.47;20734284;28;20077;-75
2024/01/12 20:45:35;;;;;;;5.35;2.30;;;;;;;19.70;44.43;97644.91;20732886;28;20050;-73
2024/01/12 20:55:54;;;;;;;3.70;2.30;;;;;;;19.78;44.38;97643.41;20738586;28;21266;-74
2024/01/12 21:06:13;;;;;;;5.00;1.88;;;;;;;19.85;44.06;97637.56;20760423;28;20152;-74
2024/01/12 21:16:33;;;;;;;3.55;1.95;;;;;;;19.90;44.03;97627.44;20764459;28;20050;-74
2024/01/12 21:26:53;;;;;;;3.45;1.92;;;;;;;19.91;43.74;97614.69;20784217;28;20453;-73
2024/01/12 21:37:12;;;;;;;3.55;2.20;;;;;;;19.92;43.69;97617.09;20793716;28;20395;-73
2024/01/12 21:47:32;;;;;;;2.33;1.90;;;;;;;19.95;43.40;97604.88;20728687;28;20081;-73
2024/01/12 21:57:51;;;;;;;7.57;1.83;;;;;;;19.88;43.25;97605.31;20737972;28;20108;-74
2024/01/12 22:08:10;;;;;;;3.03;1.90;;;;;;;19.92;43.81;97595.47;20779330;28;20057;-74
2024/01/12 22:18:30;;;;;;;2.55;1.95;;;;;;;19.87;43.78;97582.06;20791560;28;20077;-74
2024/01/12 22:28:50;;;;;;;3.85;2.00;;;;;;;19.83;44.01;97542.44;20797097;28;20058;-74
2024/01/12 22:39:09;;;;;;;2.50;1.52;;;;;;;19.81;44.12;97558.16;20753365;28;20061;-74
2024/01/12 22:49:29;;;;;;;3.60;1.73;;;;;;;19.81;43.95;97555.47;20806138;28;20618;-74
2024/01/12 22:59:48;;;;;;;3.25;1.55;;;;;;;19.74;44.11;97547.78;20803421;28;20057;-74
2024/01/12 23:10:08;;;;;;;4.93;1.83;;;;;;;19.72;43.90;97544.59;20807456;28;20065;-74
2024/01/12 23:20:30;;;;;;;2.10;1.58;;;;;;;19.67;43.99;97555.50;20760046;28;20096;-75
2024/01/12 23:30:50;;;;;;;2.58;1.60;;;;;;;19.65;44.00;97560.41;20772780;28;20049;-75
2024/01/12 23:41:09;;;;;;;2.65;1.45;;;;;;;19.62;43.86;97551.00;20761426;28;20041;-75
2024/01/12 23:51:29;;;;;;;3.35;1.60;;;;;;;19.61;43.77;97535.09;20805787;28;20054;-75
